Aviation Digital Data Service (ADDS)

Output produced by TAFs form (0816 UTC 28 July 2014)
found at http://aviationweather.gov/adds/tafs/
 
KSAF 280538Z 2806/2906 01010KT P6SM BKN090 
     FM280900 13010KT P6SM SCT110 
     FM281600 16010KT P6SM SCT080 SCT130 
     FM282100 16010KT P6SM VCTS SCT070CB BKN130 
     FM290000 10011KT P6SM VCSH BKN080